My Meet Scores
Kassidy Long, Gym Kinetics Gymnastics - MyMeetScores.com
Top100 | Top Teams | Upcoming Meets | Completed Meets | Latest | Add Scores | Help| Support | Bookmark and Share

Kassidy Long, Gym Kinetics Gymnastics
Personal Bests
LevelVault BarsBeamFloorAA
XG9.6509.625 9.4509.70038.200
XP9.2509.000 8.9009.37536.125
XS9.4009.750 9.4259.40037.400
Meet Scores
Date Meet Team Session Level Division Vault Bars Beam Floor AA
2021-03-26 Illinois State Meet Level 9,10, Platinum, Dia Gym Kinetics Gymnastics 02 XP Jr D 9.100 6 8.000 19 8.650 15 9.300 5 35.050 15
2021-02-26 Kinetic Classic 2021 Gym Kinetics Gymnastics 14 XP Younger 9.250 6T 7.600 20 8.425 17T 9.375 11T 34.650 17
2021-02-12 Harley Meet Women - Midwest Twisters Gym Kinetics Gymnastics B07 XP Jr B 9.150 4 8.325 5 8.500 9 8.500 13 34.475 7
2021-01-21 King Arthur Invitational Gym Kinetics Gymnastics 9 XP JR 8.775 2 9.000 1 8.675 7 9.150 7 35.600 2
2021-01-14 2021 Bravo Classic Gym Kinetics Gymnastics 10 XP Jr 9.250 2 8.875 3 8.900 4 9.100 6 36.125 2
2020-12-18 Aspire Classic Gym Kinetics Gymnastics 5 XP Older 9.100 5 8.550 2T 8.600 6 9.250 2T 35.500 3
2020-02-21 Kinetic Classic Gym Kinetics Gymnastics 10 XG Middle 9.650 1 9.575 26 9.450 6 9.525 8T 38.200 3T
2020-01-31 Chow's Challenge Gym Kinetics Gymnastics B3 XG Sr A 9.500 3 9.525 4 9.250 2 9.625 2T 37.900 1
2020-01-17 2020 Bravo Classic Gym Kinetics Gymnastics 3A XG Jr 9.350 3T 9.075 2 8.950 10 9.600 2T 36.975 2
2020-01-10 Leenda's Island Adventure Gym Kinetics Gymnastics GG9 XG 12 Year Ol 8.800 5T 9.300 11 9.275 1T 9.300 4T 36.675 2
2019-12-20 Aspire Classic - 2019 Gym Kinetics Gymnastics 9A XG Sr A 9.375 1 9.625 3T 9.125 9T 9.700 1 37.825 2
2019-12-06 Ultimate Wish Classic Gym Kinetics Gymnastics 9 XG JR 9.500 1 9.275 6 9.350 5 9.425 8 37.550 1
2019-04-05 2019 Illinois XG, XP, XD State Championships Gym Kinetics Gymnastics 5 XG Jr A 9.175 6 9.150 11T 8.650 18T 9.250 8T 36.225 11
2019-03-01 NGCD Academy's 2019 Flip'r Invitational Gym Kinetics Gymnastics 2 XG Jr B 8.925 11 8.400 17 9.275 9T 9.275 4T 35.875 15
2019-02-23 Kinetic Classic 2019 Gym Kinetics Gymnastics 1 XG Younger 9.225 3T 8.800 21 8.650 18T 9.350 3T 36.025 7T
2019-02-08 Midwest Twisters Harley Meet Womens Gym Kinetics Gymnastics S02 XG 11a 9.250 1 8.025 7 8.450 5 9.075 7 34.800 5
2019-01-18 2019 Bravo Classic Gym Kinetics Gymnastics 1A XG Child 8.350 14T 7.250 26 8.325 23T 9.275 7T 33.200 24
2019-01-11 St Jude Benefit Meet Gym Kinetics Gymnastics 4C XG Jr B 9.450 2 7.225 12 8.025 11 9.350 7 34.050 11
2018-12-14 2018 Aspire Classic Gym Kinetics Gymnastics 11A XG Younger 9.125 2T 0.000 23 0.000 23 9.425 4T 18.550 23
2018-04-06 XCEL State Championships Gym Kinetics Gymnastics 3A XS Jr A 9.250 7 9.400 7 9.350 5T 9.400 8T 37.400 4
2018-02-23 Kinetic Classic Gym Kinetics Gymnastics 8 XS Younger 8.900 34T 9.500 7 8.700 61T 9.025 52T 36.125 34T
2018-02-03 Midwest Games Gym Kinetics Gymnastics 2 XS JR B 9.150 3 9.275 5 8.875 7 9.000 6 36.300 5
2018-01-19 2018 Bravo Classic Gym Kinetics Gymnastics 10A XS Jr 9.175 2 9.500 2T 9.425 4 9.050 5 37.150 1
2017-12-15 2017 Aspire Classic Gym Kinetics Gymnastics 11B XS Jr B 9.400 2T 9.750 2 9.075 6 8.700 8T 36.925 4T
Get your scores on
a t-shirt, pin, or hoodie